createdAt,value
2023-01-17T00:01:34.276Z,11.80
2023-01-17T00:04:20.368Z,11.70
2023-01-17T00:07:08.068Z,11.80
2023-01-17T00:09:54.130Z,11.70
2023-01-17T00:12:27.917Z,11.70
2023-01-17T00:14:57.249Z,11.70
2023-01-17T00:17:26.720Z,11.60
2023-01-17T00:20:13.495Z,11.60
2023-01-17T00:23:02.896Z,11.60
2023-01-17T00:25:52.736Z,11.60
2023-01-17T00:28:20.623Z,11.60
2023-01-17T00:30:48.328Z,11.60
2023-01-17T00:33:16.275Z,11.70
2023-01-17T00:35:44.220Z,11.70
2023-01-17T00:38:15.188Z,11.70
2023-01-17T00:40:44.284Z,11.80
2023-01-17T00:43:32.098Z,11.80
2023-01-17T00:46:18.333Z,11.80
2023-01-17T00:49:05.047Z,11.80
2023-01-17T00:51:52.961Z,11.80
2023-01-17T00:54:41.558Z,11.70
2023-01-17T00:57:27.949Z,11.70
2023-01-17T01:00:14.337Z,11.70
2023-01-17T01:03:01.087Z,11.70
2023-01-17T01:05:47.774Z,11.60
2023-01-17T01:08:40.151Z,11.60
2023-01-17T01:11:33.078Z,11.60
2023-01-17T01:14:20.356Z,11.60
2023-01-17T01:17:07.090Z,11.60
2023-01-17T01:19:53.728Z,11.60
2023-01-17T01:22:40.073Z,11.60
2023-01-17T01:25:27.432Z,11.60
2023-01-17T01:28:23.583Z,11.60
2023-01-17T01:31:09.940Z,11.60
2023-01-17T01:33:38.049Z,11.60
2023-01-17T01:36:08.488Z,11.70
2023-01-17T01:38:37.008Z,11.70
2023-01-17T01:41:05.782Z,11.70
2023-01-17T01:43:47.308Z,11.70
2023-01-17T01:46:18.606Z,11.70
2023-01-17T01:48:53.581Z,11.70
2023-01-17T01:51:26.343Z,11.70
2023-01-17T01:54:00.259Z,11.70
2023-01-17T01:56:30.763Z,11.70
2023-01-17T01:59:03.123Z,11.70
2023-01-17T02:01:32.281Z,11.70
2023-01-17T02:04:00.587Z,11.70
2023-01-17T02:06:34.298Z,11.70
2023-01-17T02:09:06.156Z,11.80
2023-01-17T02:11:35.278Z,11.80
2023-01-17T02:14:05.157Z,11.80
2023-01-17T02:16:45.060Z,11.80
2023-01-17T02:19:49.050Z,11.80
2023-01-17T02:22:37.399Z,11.90
2023-01-17T02:25:34.618Z,11.80
2023-01-17T02:28:19.637Z,11.80
2023-01-17T02:30:53.747Z,11.80
2023-01-17T02:33:30.866Z,11.80
2023-01-17T02:36:07.968Z,11.80
2023-01-17T02:38:46.117Z,11.80
2023-01-17T02:41:18.465Z,11.80
2023-01-17T02:43:49.870Z,11.80
2023-01-17T02:46:20.277Z,11.90
2023-01-17T02:48:49.661Z,11.90
2023-01-17T02:51:42.829Z,12.00
2023-01-17T02:54:45.259Z,12.00
2023-01-17T02:57:29.908Z,12.00
2023-01-17T03:00:04.376Z,11.90
2023-01-17T03:02:43.081Z,11.90
2023-01-17T03:05:16.337Z,11.90
2023-01-17T03:07:44.979Z,11.90
2023-01-17T03:10:15.898Z,11.80
2023-01-17T03:12:44.883Z,11.80
2023-01-17T03:15:14.980Z,11.80
2023-01-17T03:17:48.377Z,11.80
2023-01-17T03:20:17.418Z,11.80
2023-01-17T03:22:45.757Z,11.80
2023-01-17T03:25:14.316Z,11.70
2023-01-17T03:27:42.756Z,11.70
2023-01-17T03:30:15.533Z,11.70
2023-01-17T03:32:46.041Z,11.70
2023-01-17T03:35:14.787Z,11.70
2023-01-17T03:37:43.076Z,11.70
2023-01-17T03:40:12.565Z,11.70
2023-01-17T03:42:40.847Z,11.70
2023-01-17T03:45:10.108Z,11.70
2023-01-17T03:47:38.347Z,11.70
2023-01-17T03:50:09.416Z,11.70
2023-01-17T03:52:37.752Z,11.80
2023-01-17T03:55:06.724Z,11.80
2023-01-17T03:57:35.079Z,11.80
2023-01-17T04:00:04.084Z,11.80
2023-01-17T04:02:35.220Z,11.80
2023-01-17T04:05:03.506Z,11.80
2023-01-17T04:07:33.175Z,11.80
2023-01-17T04:10:01.506Z,11.90
2023-01-17T04:12:29.640Z,11.90
2023-01-17T04:14:57.949Z,11.80
2023-01-17T04:17:26.300Z,11.80
2023-01-17T04:19:54.958Z,11.80
2023-01-17T04:22:23.205Z,11.70
2023-01-17T04:24:53.156Z,11.70
2023-01-17T04:27:21.556Z,11.60
2023-01-17T04:29:49.736Z,11.50
2023-01-17T04:32:18.149Z,11.40
2023-01-17T04:34:46.337Z,11.20
2023-01-17T04:37:14.716Z,11.10
2023-01-17T04:39:43.058Z,11.00
2023-01-17T04:42:12.966Z,10.90
2023-01-17T04:44:41.252Z,10.80
2023-01-17T04:47:09.560Z,10.80
2023-01-17T04:49:37.686Z,10.80
2023-01-17T04:52:06.155Z,10.70
2023-01-17T04:54:34.465Z,10.60
2023-01-17T04:57:02.837Z,10.60
2023-01-17T04:59:32.514Z,10.50
2023-01-17T05:02:01.071Z,10.50
2023-01-17T05:04:29.290Z,10.50
2023-01-17T05:06:57.708Z,10.40
2023-01-17T05:09:26.103Z,10.30
2023-01-17T05:11:56.166Z,10.30
2023-01-17T05:14:27.387Z,10.30
2023-01-17T05:16:58.225Z,10.30
2023-01-17T05:19:27.949Z,10.20
2023-01-17T05:22:05.419Z,10.20
2023-01-17T05:24:34.690Z,10.10
2023-01-17T05:27:03.494Z,10.10
2023-01-17T05:29:31.805Z,10.10
2023-01-17T05:32:01.587Z,10.10
2023-01-17T05:34:30.035Z,10.10
2023-01-17T05:36:58.270Z,10.10
2023-01-17T05:39:26.965Z,10.00
2023-01-17T05:41:55.228Z,10.10
2023-01-17T05:44:23.601Z,10.10
2023-01-17T05:46:51.978Z,10.10
2023-01-17T05:49:21.913Z,10.20
2023-01-17T05:51:50.432Z,10.20
2023-01-17T05:54:18.806Z,10.20
2023-01-17T05:56:47.267Z,10.30
2023-01-17T05:59:17.261Z,10.30
2023-01-17T06:01:47.227Z,10.30
2023-01-17T06:04:15.690Z,10.30
2023-01-17T06:06:45.872Z,10.40
2023-01-17T06:09:14.395Z,10.40
2023-01-17T06:11:42.935Z,10.40
2023-01-17T06:14:11.581Z,10.40
2023-01-17T06:16:40.057Z,10.50
2023-01-17T06:19:10.026Z,10.50
2023-01-17T06:21:38.461Z,10.50
2023-01-17T06:24:08.906Z,10.50
2023-01-17T06:26:37.439Z,10.50
2023-01-17T06:29:05.776Z,10.50
2023-01-17T06:31:34.564Z,10.50
2023-01-17T06:34:03.953Z,10.50
2023-01-17T06:36:33.510Z,10.50
2023-01-17T06:39:01.935Z,10.50
2023-01-17T06:41:32.222Z,10.50
2023-01-17T06:44:00.745Z,10.50
2023-01-17T06:46:29.365Z,10.60
2023-01-17T06:48:58.041Z,10.50
2023-01-17T06:51:26.429Z,10.60
2023-01-17T06:53:54.891Z,10.50
2023-01-17T06:56:23.449Z,10.40
2023-01-17T06:58:53.841Z,10.40
2023-01-17T07:01:22.516Z,10.40
2023-01-17T07:03:52.868Z,10.30
2023-01-17T07:06:21.843Z,10.20
2023-01-17T07:08:50.345Z,10.20
2023-01-17T07:11:18.980Z,10.20
2023-01-17T07:13:47.375Z,10.20
2023-01-17T07:16:17.649Z,10.20
2023-01-17T07:18:46.221Z,10.20
2023-01-17T07:21:15.492Z,10.20
2023-01-17T07:23:44.196Z,10.20
2023-01-17T07:26:12.574Z,10.20
2023-01-17T07:28:41.374Z,10.30
2023-01-17T07:31:10.033Z,10.30
2023-01-17T07:33:39.991Z,10.30
2023-01-17T07:36:10.109Z,10.40
2023-01-17T07:38:38.755Z,10.40
2023-01-17T07:41:07.705Z,10.40
2023-01-17T07:43:37.131Z,10.40
2023-01-17T07:46:08.372Z,10.40
2023-01-17T07:48:36.865Z,10.40
2023-01-17T07:51:07.297Z,10.40
2023-01-17T07:53:36.442Z,10.40
2023-01-17T07:56:06.826Z,10.30
2023-01-17T07:58:35.764Z,10.30
2023-01-17T08:01:05.767Z,10.30
2023-01-17T08:03:40.308Z,10.30
2023-01-17T08:06:16.994Z,10.30
2023-01-17T08:08:45.246Z,10.30
2023-01-17T08:11:13.955Z,10.30
2023-01-17T08:13:43.005Z,10.30
2023-01-17T08:16:11.786Z,10.30
2023-01-17T08:18:40.839Z,10.30
2023-01-17T08:21:15.390Z,10.30
2023-01-17T08:23:44.040Z,10.30
2023-01-17T08:26:21.801Z,10.30
2023-01-17T08:28:55.708Z,10.30
2023-01-17T08:31:26.525Z,10.30
2023-01-17T08:33:55.337Z,10.30
2023-01-17T08:36:29.337Z,10.30
2023-01-17T08:38:58.228Z,10.30
2023-01-17T08:41:29.708Z,10.30
2023-01-17T08:43:59.180Z,10.30
2023-01-17T08:46:27.629Z,10.40
2023-01-17T08:48:59.128Z,10.40
2023-01-17T08:51:31.923Z,10.40
2023-01-17T08:54:00.585Z,10.30
2023-01-17T08:56:29.253Z,10.30
2023-01-17T08:58:57.721Z,10.20
2023-01-17T09:01:26.251Z,10.30
2023-01-17T09:03:54.926Z,10.30
2023-01-17T09:06:23.502Z,10.30
2023-01-17T09:08:55.272Z,10.30
2023-01-17T09:11:23.998Z,10.20
2023-01-17T09:13:52.493Z,10.30
2023-01-17T09:16:21.227Z,10.30
2023-01-17T09:18:49.840Z,10.30
2023-01-17T09:21:19.207Z,10.30
2023-01-17T09:23:47.893Z,10.30
2023-01-17T09:26:20.259Z,10.30
2023-01-17T09:28:49.657Z,10.30
2023-01-17T09:31:18.844Z,10.40
2023-01-17T09:33:47.659Z,10.40
2023-01-17T09:36:16.176Z,10.30
2023-01-17T09:38:45.127Z,10.30
2023-01-17T09:41:28.135Z,10.30
2023-01-17T09:44:01.931Z,10.30
2023-01-17T09:46:37.928Z,10.30
2023-01-17T09:49:09.149Z,10.40
2023-01-17T09:51:38.225Z,10.40
2023-01-17T09:54:10.293Z,10.40
2023-01-17T09:56:47.682Z,10.40
2023-01-17T09:59:32.616Z,10.40
2023-01-17T10:02:08.420Z,10.40
2023-01-17T10:04:55.974Z,10.30
2023-01-17T10:07:36.737Z,10.30
2023-01-17T10:10:19.542Z,10.30
2023-01-17T10:12:55.579Z,10.40
2023-01-17T10:15:45.118Z,10.50
2023-01-17T10:18:40.230Z,10.60
2023-01-17T10:21:15.072Z,10.60
2023-01-17T10:24:04.014Z,10.70
2023-01-17T10:26:34.697Z,10.80
2023-01-17T10:29:11.158Z,10.80
2023-01-17T10:31:45.407Z,10.90
2023-01-17T10:34:19.166Z,10.90
2023-01-17T10:36:53.204Z,10.90
2023-01-17T10:39:23.876Z,10.80
2023-01-17T10:41:59.016Z,10.80
2023-01-17T10:44:35.922Z,10.80
2023-01-17T10:47:12.799Z,10.90
2023-01-17T10:49:46.702Z,11.00
2023-01-17T10:52:23.143Z,11.00
2023-01-17T10:55:04.307Z,11.00
2023-01-17T10:57:38.840Z,11.00
2023-01-17T11:00:33.774Z,10.80
2023-01-17T11:03:03.347Z,10.70
2023-01-17T11:05:33.440Z,10.80
2023-01-17T11:08:03.109Z,10.80
2023-01-17T11:10:38.388Z,10.80
2023-01-17T11:13:20.286Z,10.80
2023-01-17T11:15:52.714Z,10.90
2023-01-17T11:18:22.980Z,10.90
2023-01-17T11:20:51.972Z,10.80
2023-01-17T11:23:23.018Z,10.80
2023-01-17T11:25:54.180Z,10.80
2023-01-17T11:28:26.535Z,10.80
2023-01-17T11:30:58.089Z,10.80
2023-01-17T11:33:57.174Z,10.90
2023-01-17T11:36:30.548Z,10.90
2023-01-17T11:39:03.229Z,10.90
2023-01-17T11:41:35.963Z,10.90
2023-01-17T11:44:21.211Z,10.90
2023-01-17T11:47:10.407Z,10.90
2023-01-17T11:49:39.351Z,10.90
2023-01-17T11:52:10.205Z,10.90
2023-01-17T11:54:40.952Z,10.90
2023-01-17T11:57:21.778Z,10.90
2023-01-17T11:59:52.977Z,10.90
2023-01-17T12:02:43.717Z,10.90
2023-01-17T12:05:25.891Z,10.90
2023-01-17T12:08:04.530Z,11.00
2023-01-17T12:10:40.548Z,11.10
2023-01-17T12:13:35.296Z,11.10
2023-01-17T12:16:34.417Z,11.10
2023-01-17T12:19:35.035Z,11.10
2023-01-17T12:22:20.459Z,11.10
2023-01-17T12:25:21.116Z,11.10
2023-01-17T12:27:59.347Z,11.10
2023-01-17T12:30:40.812Z,11.10
2023-01-17T12:33:19.823Z,11.00
2023-01-17T12:35:56.803Z,11.00
2023-01-17T12:38:33.485Z,10.90
2023-01-17T12:41:06.796Z,10.90
2023-01-17T12:43:42.434Z,10.90
2023-01-17T12:46:21.399Z,11.00
2023-01-17T12:48:53.566Z,11.10
2023-01-17T12:51:29.719Z,11.20
2023-01-17T12:54:04.940Z,11.10
2023-01-17T12:56:37.456Z,11.10
2023-01-17T12:59:16.306Z,11.20
2023-01-17T13:01:58.041Z,11.20
2023-01-17T13:04:30.302Z,11.30
2023-01-17T13:07:10.127Z,11.30
2023-01-17T13:09:43.677Z,11.40
2023-01-17T13:12:15.768Z,11.50
2023-01-17T13:14:47.330Z,11.50
2023-01-17T13:17:32.046Z,11.50
2023-01-17T13:20:07.259Z,11.40
2023-01-17T13:22:39.527Z,11.40
2023-01-17T13:25:26.049Z,11.30
2023-01-17T13:28:13.429Z,11.30
2023-01-17T13:31:32.632Z,11.40
2023-01-17T13:34:27.802Z,11.40
2023-01-17T13:37:10.088Z,11.50
2023-01-17T13:40:06.104Z,11.50
2023-01-17T13:42:43.440Z,11.40
2023-01-17T13:45:19.921Z,11.40
2023-01-17T13:47:48.661Z,11.60
2023-01-17T13:50:48.683Z,11.70
2023-01-17T13:53:56.363Z,11.80
2023-01-17T13:56:37.488Z,11.80
2023-01-17T13:59:29.752Z,11.70
2023-01-17T14:01:58.653Z,11.70
2023-01-17T14:05:07.990Z,11.70
2023-01-17T14:07:47.783Z,11.70
2023-01-17T14:10:37.641Z,11.70
2023-01-17T14:13:33.511Z,11.70
2023-01-17T14:16:04.171Z,11.80
2023-01-17T14:18:34.765Z,11.80
2023-01-17T14:21:11.802Z,11.80
2023-01-17T14:24:00.084Z,11.80
2023-01-17T14:26:45.762Z,11.80
2023-01-17T14:29:55.074Z,11.80
2023-01-17T14:32:26.489Z,11.80
2023-01-17T14:34:55.613Z,11.70
2023-01-17T14:37:43.775Z,11.60
2023-01-17T14:40:20.766Z,11.70
2023-01-17T14:42:53.431Z,11.70
2023-01-17T14:45:29.015Z,11.60
2023-01-17T14:47:58.721Z,11.60
2023-01-17T14:50:29.942Z,11.60
2023-01-17T14:53:18.226Z,11.60
2023-01-17T14:56:01.434Z,11.60
2023-01-17T14:58:31.613Z,11.60
2023-01-17T15:01:05.811Z,11.60
2023-01-17T15:03:42.998Z,11.60
2023-01-17T15:06:14.203Z,11.60
2023-01-17T15:08:42.812Z,11.60
2023-01-17T15:11:18.535Z,11.60
2023-01-17T15:13:50.222Z,11.60
2023-01-17T15:16:24.122Z,11.60
2023-01-17T15:18:53.456Z,11.50
2023-01-17T15:21:23.962Z,11.60
2023-01-17T15:23:55.663Z,11.60
2023-01-17T15:26:26.214Z,11.60
2023-01-17T15:29:00.221Z,11.50
2023-01-17T15:31:42.544Z,11.50
2023-01-17T15:34:20.374Z,11.50
2023-01-17T15:36:49.913Z,11.50
2023-01-17T15:39:21.247Z,11.50
2023-01-17T15:41:53.311Z,11.50
2023-01-17T15:44:47.097Z,11.50
2023-01-17T15:47:32.379Z,11.40
2023-01-17T15:50:02.216Z,11.40
2023-01-17T15:52:30.615Z,11.40
2023-01-17T15:55:00.488Z,11.40
2023-01-17T15:57:34.320Z,11.40
2023-01-17T16:00:08.105Z,11.30
2023-01-17T16:02:44.650Z,11.30
2023-01-17T16:05:42.231Z,11.30
2023-01-17T16:08:32.059Z,11.30
2023-01-17T16:11:06.447Z,11.30
2023-01-17T16:13:38.233Z,11.30
2023-01-17T16:16:14.793Z,11.30
2023-01-17T16:18:46.902Z,11.30
2023-01-17T16:21:26.377Z,11.30
2023-01-17T16:23:55.007Z,11.20
2023-01-17T16:26:23.693Z,11.20
2023-01-17T16:28:51.961Z,11.10
2023-01-17T16:31:20.345Z,11.00
2023-01-17T16:33:52.075Z,10.90
2023-01-17T16:36:23.157Z,10.90
2023-01-17T16:38:52.433Z,10.80
2023-01-17T16:41:21.342Z,10.80
2023-01-17T16:43:59.102Z,10.70
2023-01-17T16:46:27.805Z,10.60
2023-01-17T16:48:59.383Z,10.60
2023-01-17T16:51:27.683Z,10.60
2023-01-17T16:53:55.882Z,10.60
2023-01-17T16:56:24.343Z,10.60
2023-01-17T16:58:55.411Z,10.60
2023-01-17T17:01:23.934Z,10.60
2023-01-17T17:03:52.279Z,10.60
2023-01-17T17:06:22.082Z,10.50
2023-01-17T17:08:50.432Z,10.60
2023-01-17T17:11:20.270Z,10.60
2023-01-17T17:13:50.469Z,10.60
2023-01-17T17:16:20.843Z,10.60
2023-01-17T17:18:56.063Z,10.60
2023-01-17T17:21:26.732Z,10.60
2023-01-17T17:23:57.273Z,10.70
2023-01-17T17:26:27.752Z,10.70
2023-01-17T17:28:56.204Z,10.70
2023-01-17T17:31:24.792Z,10.70
2023-01-17T17:33:52.991Z,10.70
2023-01-17T17:36:21.380Z,10.70
2023-01-17T17:38:54.072Z,10.80
2023-01-17T17:41:24.105Z,10.80
2023-01-17T17:43:52.771Z,10.80
2023-01-17T17:46:23.118Z,10.80
2023-01-17T17:48:51.434Z,10.70
2023-01-17T17:51:24.775Z,10.70
2023-01-17T17:53:55.212Z,10.80
2023-01-17T17:56:24.338Z,10.80
2023-01-17T17:58:52.642Z,10.70
2023-01-17T18:01:23.096Z,10.70
2023-01-17T18:03:51.850Z,10.70
2023-01-17T18:06:20.744Z,10.70
2023-01-17T18:08:49.060Z,10.80
2023-01-17T18:11:20.431Z,10.80
2023-01-17T18:13:52.518Z,10.80
2023-01-17T18:16:23.794Z,10.80
2023-01-17T18:18:54.253Z,10.80
2023-01-17T18:21:25.487Z,10.80
2023-01-17T18:23:55.518Z,10.80
2023-01-17T18:26:27.581Z,10.80
2023-01-17T18:28:56.769Z,10.90
2023-01-17T18:31:25.741Z,10.90
2023-01-17T18:33:54.552Z,10.80
2023-01-17T18:36:23.863Z,10.80
2023-01-17T18:38:53.090Z,10.90
2023-01-17T18:41:22.719Z,10.90
2023-01-17T18:43:52.776Z,10.90
2023-01-17T18:46:21.289Z,10.80
2023-01-17T18:48:49.652Z,10.80
2023-01-17T18:51:19.167Z,10.90
2023-01-17T18:53:47.654Z,10.90
2023-01-17T18:56:18.968Z,10.90
2023-01-17T18:58:48.508Z,10.90
2023-01-17T19:01:19.671Z,10.90
2023-01-17T19:03:50.098Z,10.80
2023-01-17T19:06:20.114Z,10.80
2023-01-17T19:08:52.107Z,10.80
2023-01-17T19:11:20.722Z,10.90
2023-01-17T19:13:50.563Z,10.80
2023-01-17T19:16:24.582Z,10.80
2023-01-17T19:18:53.283Z,10.70
2023-01-17T19:21:23.234Z,10.80
2023-01-17T19:23:51.498Z,10.70
2023-01-17T19:26:20.648Z,10.70
2023-01-17T19:28:49.468Z,10.70
2023-01-17T19:31:21.442Z,10.70
2023-01-17T19:33:51.104Z,10.70
2023-01-17T19:36:21.228Z,10.60
2023-01-17T19:39:03.412Z,10.60
2023-01-17T19:41:34.261Z,10.60
2023-01-17T19:44:04.335Z,10.60
2023-01-17T19:46:35.256Z,10.60
2023-01-17T19:49:05.084Z,10.50
2023-01-17T19:51:36.908Z,10.50
2023-01-17T19:54:08.240Z,10.50
2023-01-17T19:56:36.511Z,10.50
2023-01-17T19:59:04.698Z,10.50
2023-01-17T20:01:35.699Z,10.50
2023-01-17T20:04:04.663Z,10.50
2023-01-17T20:06:35.747Z,10.50
2023-01-17T20:09:04.757Z,10.50
2023-01-17T20:11:33.083Z,10.40
2023-01-17T20:14:07.112Z,10.50
2023-01-17T20:16:38.384Z,10.40
2023-01-17T20:19:09.004Z,10.50
2023-01-17T20:21:41.192Z,10.50
2023-01-17T20:24:11.611Z,10.50
2023-01-17T20:26:41.428Z,10.40
2023-01-17T20:29:12.849Z,10.40
2023-01-17T20:31:44.427Z,10.40
2023-01-17T20:34:14.422Z,10.40
2023-01-17T20:36:42.906Z,10.40
2023-01-17T20:39:14.808Z,10.40
2023-01-17T20:41:46.451Z,10.40
2023-01-17T20:44:16.125Z,10.40
2023-01-17T20:46:48.003Z,10.40
2023-01-17T20:49:19.071Z,10.40
2023-01-17T20:51:48.294Z,10.40
2023-01-17T20:54:18.602Z,10.40
2023-01-17T20:56:50.127Z,10.40
2023-01-17T20:59:20.080Z,10.40
2023-01-17T21:01:50.041Z,10.40
2023-01-17T21:04:25.071Z,10.50
2023-01-17T21:06:53.621Z,10.50
2023-01-17T21:09:22.260Z,10.50
2023-01-17T21:11:50.770Z,10.50
2023-01-17T21:14:19.229Z,10.60
2023-01-17T21:16:50.487Z,10.60
2023-01-17T21:19:18.737Z,10.60
2023-01-17T21:21:48.751Z,10.60
2023-01-17T21:24:19.096Z,10.60
2023-01-17T21:26:47.515Z,10.70
2023-01-17T21:29:16.355Z,10.70
2023-01-17T21:31:45.569Z,10.60
2023-01-17T21:34:15.552Z,10.70
2023-01-17T21:36:43.949Z,10.70
2023-01-17T21:39:13.621Z,10.70
2023-01-17T21:41:42.953Z,10.70
2023-01-17T21:44:14.348Z,10.70
2023-01-17T21:46:42.541Z,10.70
2023-01-17T21:49:12.281Z,10.80
2023-01-17T21:51:55.410Z,10.80
2023-01-17T21:54:44.587Z,10.70
2023-01-17T21:57:31.992Z,10.70
2023-01-17T22:00:00.279Z,10.70
2023-01-17T22:02:28.379Z,10.60
2023-01-17T22:04:56.609Z,10.60
2023-01-17T22:07:29.662Z,10.50
2023-01-17T22:09:58.655Z,10.40
2023-01-17T22:12:27.107Z,10.40
2023-01-17T22:14:55.882Z,10.30
2023-01-17T22:17:24.532Z,10.30
2023-01-17T22:19:53.452Z,10.20
2023-01-17T22:22:22.089Z,10.20
2023-01-17T22:24:52.550Z,10.20
2023-01-17T22:27:21.228Z,10.10
2023-01-17T22:29:49.761Z,10.00
2023-01-17T22:32:18.348Z,10.00
2023-01-17T22:34:47.208Z,10.00
2023-01-17T22:37:15.859Z,9.90
2023-01-17T22:39:44.889Z,9.80
2023-01-17T22:42:16.984Z,9.80
2023-01-17T22:44:46.161Z,9.70
2023-01-17T22:47:14.642Z,9.70
2023-01-17T22:49:43.347Z,9.70
2023-01-17T22:52:11.988Z,9.70
2023-01-17T22:54:40.596Z,9.70
2023-01-17T22:57:09.242Z,9.70
2023-01-17T22:59:39.361Z,9.70
2023-01-17T23:02:08.010Z,9.80
2023-01-17T23:04:36.492Z,9.90
2023-01-17T23:07:05.063Z,9.90
2023-01-17T23:09:33.877Z,9.90
2023-01-17T23:12:02.913Z,9.80
2023-01-17T23:14:52.798Z,9.80
2023-01-17T23:17:42.892Z,9.80
2023-01-17T23:20:12.611Z,9.80
2023-01-17T23:22:41.240Z,9.80
2023-01-17T23:25:12.150Z,9.70
2023-01-17T23:28:00.859Z,9.70
2023-01-17T23:30:35.097Z,9.70
2023-01-17T23:33:07.053Z,9.80
2023-01-17T23:35:41.542Z,9.80
2023-01-17T23:38:31.379Z,9.80
2023-01-17T23:41:22.953Z,9.80
2023-01-17T23:43:52.463Z,9.80
2023-01-17T23:46:21.508Z,9.80
2023-01-17T23:48:51.807Z,9.80
2023-01-17T23:51:20.352Z,9.80
2023-01-17T23:53:48.728Z,9.80
2023-01-17T23:56:19.267Z,9.80
2023-01-17T23:58:47.968Z,9.80
